createdAt,value
2023-04-10T00:00:57.649Z,100.00
2023-04-10T00:03:25.398Z,100.00
2023-04-10T00:05:54.781Z,100.00
2023-04-10T00:08:24.866Z,100.00
2023-04-10T00:10:53.256Z,100.00
2023-04-10T00:13:20.879Z,100.00
2023-04-10T00:15:47.967Z,100.00
2023-04-10T00:18:14.626Z,100.00
2023-04-10T00:20:41.990Z,100.00
2023-04-10T00:23:08.731Z,100.00
2023-04-10T00:25:35.454Z,100.00
2023-04-10T00:28:02.104Z,100.00
2023-04-10T00:30:28.860Z,100.00
2023-04-10T00:32:55.701Z,100.00
2023-04-10T00:35:22.488Z,100.00
2023-04-10T00:37:50.340Z,100.00
2023-04-10T00:40:17.289Z,100.00
2023-04-10T00:42:43.950Z,100.00
2023-04-10T00:45:11.648Z,100.00
2023-04-10T00:47:38.936Z,100.00
2023-04-10T00:50:06.644Z,100.00
2023-04-10T00:52:33.370Z,100.00
2023-04-10T00:55:00.176Z,100.00
2023-04-10T00:57:27.181Z,100.00
2023-04-10T00:59:54.078Z,100.00
2023-04-10T01:02:20.992Z,100.00
2023-04-10T01:04:48.167Z,100.00
2023-04-10T01:07:42.681Z,100.00
2023-04-10T01:10:24.968Z,100.00
2023-04-10T01:12:51.548Z,100.00
2023-04-10T01:15:21.626Z,100.00
2023-04-10T01:18:31.788Z,100.00
2023-04-10T01:21:02.423Z,100.00
2023-04-10T01:23:54.894Z,100.00
2023-04-10T01:26:56.847Z,100.00
2023-04-10T01:29:27.902Z,100.00
2023-04-10T01:31:59.973Z,100.00
2023-04-10T01:34:37.064Z,100.00
2023-04-10T01:37:18.185Z,100.00
2023-04-10T01:39:50.049Z,100.00
2023-04-10T01:42:20.720Z,100.00
2023-04-10T01:44:50.660Z,100.00
2023-04-10T01:47:18.437Z,100.00
2023-04-10T01:49:47.932Z,100.00
2023-04-10T01:52:16.622Z,100.00
2023-04-10T01:54:49.456Z,100.00
2023-04-10T01:57:22.928Z,100.00
2023-04-10T01:59:53.241Z,100.00
2023-04-10T02:02:20.023Z,100.00
2023-04-10T02:04:51.906Z,100.00
2023-04-10T02:07:26.413Z,100.00
2023-04-10T02:09:59.151Z,100.00
2023-04-10T02:12:32.039Z,100.00
2023-04-10T02:15:05.336Z,100.00
2023-04-10T02:17:33.881Z,100.00
2023-04-10T02:20:04.680Z,100.00
2023-04-10T02:22:31.967Z,100.00
2023-04-10T02:24:58.968Z,100.00
2023-04-10T02:27:36.280Z,100.00
2023-04-10T02:30:04.630Z,100.00
2023-04-10T02:32:33.883Z,100.00
2023-04-10T02:35:02.191Z,100.00
2023-04-10T02:37:30.677Z,100.00
2023-04-10T02:40:00.265Z,100.00
2023-04-10T02:42:31.022Z,100.00
2023-04-10T02:45:01.052Z,100.00
2023-04-10T02:47:33.052Z,100.00
2023-04-10T02:49:59.726Z,100.00
2023-04-10T02:52:31.552Z,100.00
2023-04-10T02:54:58.405Z,100.00
2023-04-10T02:57:28.961Z,100.00
2023-04-10T02:59:55.922Z,100.00
2023-04-10T03:02:24.649Z,100.00
2023-04-10T03:04:53.775Z,100.00
2023-04-10T03:07:20.548Z,100.00
2023-04-10T03:09:48.639Z,100.00
2023-04-10T03:12:15.323Z,100.00
2023-04-10T03:14:42.053Z,100.00
2023-04-10T03:17:09.021Z,100.00
2023-04-10T03:19:35.860Z,100.00
2023-04-10T03:22:02.525Z,100.00
2023-04-10T03:24:29.279Z,100.00
2023-04-10T03:26:57.101Z,100.00
2023-04-10T03:29:23.987Z,100.00
2023-04-10T03:31:51.012Z,100.00
2023-04-10T03:34:18.578Z,100.00
2023-04-10T03:36:45.228Z,100.00
2023-04-10T03:39:12.031Z,100.00
2023-04-10T03:41:38.678Z,100.00
2023-04-10T03:44:05.472Z,100.00
2023-04-10T03:49:12.800Z,100.00
2023-04-10T03:51:40.043Z,100.00
2023-04-10T03:54:06.812Z,100.00
2023-04-10T03:56:33.453Z,100.00
2023-04-10T03:59:00.967Z,100.00
2023-04-10T04:01:27.940Z,100.00
2023-04-10T04:04:02.231Z,100.00
2023-04-10T04:06:48.710Z,100.00
2023-04-10T04:09:35.937Z,100.00
2023-04-10T04:12:18.096Z,100.00
2023-04-10T04:14:47.373Z,100.00
2023-04-10T04:17:36.848Z,100.00
2023-04-10T04:20:04.272Z,100.00
2023-04-10T04:23:00.403Z,100.00
2023-04-10T04:25:44.616Z,100.00
2023-04-10T04:28:13.709Z,100.00
2023-04-10T04:31:13.202Z,100.00
2023-04-10T04:34:01.930Z,100.00
2023-04-10T04:36:39.015Z,100.00
2023-04-10T04:39:11.558Z,100.00
2023-04-10T04:42:07.784Z,100.00
2023-04-10T04:45:02.155Z,100.00
2023-04-10T04:48:04.038Z,100.00
2023-04-10T04:50:56.367Z,100.00
2023-04-10T04:53:41.670Z,100.00
2023-04-10T04:56:24.040Z,100.00
2023-04-10T04:59:04.612Z,100.00
2023-04-10T05:01:54.202Z,100.00
2023-04-10T05:04:53.119Z,100.00
2023-04-10T05:07:29.904Z,100.00
2023-04-10T05:10:16.515Z,100.00
2023-04-10T05:12:58.641Z,100.00
2023-04-10T05:15:33.429Z,100.00
2023-04-10T05:18:32.405Z,100.00
2023-04-10T05:21:17.451Z,100.00
2023-04-10T05:24:04.580Z,100.00
2023-04-10T05:26:51.743Z,100.00
2023-04-10T05:29:50.800Z,100.00
2023-04-10T05:32:37.865Z,100.00
2023-04-10T05:35:20.925Z,100.00
2023-04-10T05:38:01.197Z,100.00
2023-04-10T05:40:33.540Z,100.00
2023-04-10T05:43:21.880Z,100.00
2023-04-10T05:46:26.922Z,100.00
2023-04-10T05:49:16.967Z,100.00
2023-04-10T05:52:01.886Z,100.00
2023-04-10T05:54:56.753Z,100.00
2023-04-10T05:57:42.074Z,100.00
2023-04-10T06:00:27.521Z,100.00
2023-04-10T06:03:12.835Z,100.00
2023-04-10T06:05:49.612Z,100.00
2023-04-10T06:08:16.332Z,100.00
2023-04-10T06:10:42.966Z,100.00
2023-04-10T06:13:11.521Z,100.00
2023-04-10T06:15:38.546Z,100.00
2023-04-10T06:18:05.448Z,100.00
2023-04-10T06:20:32.138Z,100.00
2023-04-10T06:22:59.482Z,100.00
2023-04-10T06:25:26.673Z,100.00
2023-04-10T06:27:53.618Z,100.00
2023-04-10T06:30:20.336Z,100.00
2023-04-10T06:32:47.049Z,100.00
2023-04-10T06:35:13.946Z,100.00
2023-04-10T06:37:40.785Z,100.00
2023-04-10T06:40:10.170Z,100.00
2023-04-10T06:42:37.820Z,100.00
2023-04-10T06:45:13.255Z,100.00
2023-04-10T06:47:40.401Z,100.00
2023-04-10T06:50:07.280Z,100.00
2023-04-10T06:52:33.941Z,100.00
2023-04-10T06:55:00.889Z,100.00
2023-04-10T06:57:28.754Z,99.73
2023-04-10T06:59:55.529Z,99.20
2023-04-10T07:02:22.396Z,97.18
2023-04-10T07:04:50.058Z,95.63
2023-04-10T07:07:18.015Z,94.40
2023-04-10T07:09:44.856Z,92.97
2023-04-10T07:12:11.461Z,94.34
2023-04-10T07:14:38.204Z,93.02
2023-04-10T07:17:04.920Z,90.39
2023-04-10T07:19:31.673Z,89.05
2023-04-10T07:21:58.445Z,87.92
2023-04-10T07:24:25.242Z,87.71
2023-04-10T07:26:52.148Z,83.87
2023-04-10T07:29:19.124Z,83.66
2023-04-10T07:31:45.944Z,83.78
2023-04-10T07:34:12.891Z,82.56
2023-04-10T07:36:39.544Z,81.29
2023-04-10T07:39:06.272Z,82.06
2023-04-10T07:41:33.020Z,81.83
2023-04-10T07:43:59.614Z,81.98
2023-04-10T07:46:27.545Z,82.85
2023-04-10T07:48:55.671Z,82.05
2023-04-10T07:51:22.654Z,83.62
2023-04-10T07:53:49.459Z,83.50
2023-04-10T07:56:17.613Z,82.06
2023-04-10T07:58:44.715Z,81.88
2023-04-10T08:01:11.714Z,82.35
2023-04-10T08:03:47.859Z,82.14
2023-04-10T08:06:14.870Z,81.59
2023-04-10T08:08:42.568Z,79.88
2023-04-10T08:11:38.411Z,77.65
2023-04-10T08:14:05.856Z,78.04
2023-04-10T08:16:35.119Z,77.36
2023-04-10T08:19:02.584Z,75.94
2023-04-10T08:21:31.821Z,73.28
2023-04-10T08:24:02.585Z,72.89
2023-04-10T08:26:29.620Z,72.02
2023-04-10T08:28:58.429Z,71.58
2023-04-10T08:31:27.465Z,73.00
2023-04-10T08:33:55.604Z,71.86
2023-04-10T08:36:22.762Z,72.78
2023-04-10T08:38:49.459Z,73.14
2023-04-10T08:41:18.315Z,70.94
2023-04-10T08:43:46.270Z,69.65
2023-04-10T08:46:14.711Z,69.80
2023-04-10T08:48:56.995Z,69.29
2023-04-10T08:51:28.947Z,68.97
2023-04-10T08:54:00.455Z,69.78
2023-04-10T08:56:27.713Z,68.20
2023-04-10T08:58:54.439Z,68.61
2023-04-10T09:01:21.882Z,67.34
2023-04-10T09:03:48.887Z,65.40
2023-04-10T09:06:15.758Z,64.21
2023-04-10T09:08:42.455Z,63.13
2023-04-10T09:11:09.234Z,63.06
2023-04-10T09:13:41.682Z,62.61
2023-04-10T09:16:09.616Z,62.91
2023-04-10T09:18:50.875Z,61.78
2023-04-10T09:21:19.997Z,63.66
2023-04-10T09:23:47.822Z,64.53
2023-04-10T09:26:31.067Z,62.92
2023-04-10T09:28:58.960Z,59.84
2023-04-10T09:31:33.378Z,60.50
2023-04-10T09:34:18.385Z,60.65
2023-04-10T09:37:01.418Z,57.97
2023-04-10T09:39:37.000Z,57.42
2023-04-10T09:42:04.139Z,58.38
2023-04-10T09:44:38.720Z,60.93
2023-04-10T09:47:14.559Z,58.96
2023-04-10T09:49:54.398Z,57.71
2023-04-10T09:52:38.279Z,57.63
2023-04-10T09:55:07.644Z,55.15
2023-04-10T09:57:35.672Z,54.71
2023-04-10T10:00:05.269Z,54.96
2023-04-10T10:02:40.103Z,51.95
2023-04-10T10:05:07.887Z,53.53
2023-04-10T10:07:34.991Z,51.79
2023-04-10T10:10:03.445Z,51.60
2023-04-10T10:12:37.183Z,49.98
2023-04-10T10:15:16.042Z,50.11
2023-04-10T10:17:45.571Z,49.46
2023-04-10T10:20:13.608Z,49.73
2023-04-10T10:22:40.782Z,49.16
2023-04-10T10:25:09.064Z,50.11
2023-04-10T10:27:38.761Z,49.88
2023-04-10T10:30:20.159Z,49.42
2023-04-10T10:32:54.870Z,49.47
2023-04-10T10:35:22.985Z,49.18
2023-04-10T10:37:51.156Z,47.22
2023-04-10T10:40:32.786Z,47.20
2023-04-10T10:43:05.160Z,46.72
2023-04-10T10:45:40.169Z,47.39
2023-04-10T10:48:07.391Z,46.16
2023-04-10T10:50:57.161Z,46.53
2023-04-10T10:53:34.960Z,46.72
2023-04-10T10:56:19.882Z,47.00
2023-04-10T10:58:47.361Z,45.96
2023-04-10T11:01:14.472Z,45.94
2023-04-10T11:03:41.921Z,47.14
2023-04-10T11:06:10.068Z,43.55
2023-04-10T11:08:43.374Z,42.89
2023-04-10T11:11:13.038Z,42.00
2023-04-10T11:13:59.609Z,41.41
2023-04-10T11:16:40.913Z,41.61
2023-04-10T11:19:16.380Z,39.73
2023-04-10T11:22:02.041Z,38.54
2023-04-10T11:24:30.480Z,39.45
2023-04-10T11:26:57.582Z,39.83
2023-04-10T11:29:27.268Z,38.96
2023-04-10T11:31:58.963Z,41.25
2023-04-10T11:34:27.592Z,40.99
2023-04-10T11:36:54.319Z,40.75
2023-04-10T11:39:21.649Z,40.89
2023-04-10T11:41:50.632Z,41.45
2023-04-10T11:44:32.161Z,40.37
2023-04-10T11:46:59.086Z,38.40
2023-04-10T11:49:28.174Z,38.00
2023-04-10T11:51:55.463Z,36.88
2023-04-10T11:54:24.445Z,36.36
2023-04-10T11:57:02.229Z,36.05
2023-04-10T11:59:30.082Z,37.25
2023-04-10T12:02:11.650Z,37.65
2023-04-10T12:04:38.872Z,38.13
2023-04-10T12:07:06.188Z,37.88
2023-04-10T12:09:32.920Z,36.39
2023-04-10T12:12:03.078Z,36.13
2023-04-10T12:14:34.248Z,36.94
2023-04-10T12:17:02.545Z,36.74
2023-04-10T12:19:30.583Z,37.24
2023-04-10T12:22:02.836Z,36.16
2023-04-10T12:24:43.755Z,36.19
2023-04-10T12:27:20.692Z,36.02
2023-04-10T12:29:49.305Z,36.12
2023-04-10T12:32:16.487Z,36.86
2023-04-10T12:34:50.541Z,34.96
2023-04-10T12:37:17.237Z,34.54
2023-04-10T12:39:44.125Z,35.70
2023-04-10T12:42:19.686Z,35.14
2023-04-10T12:45:14.083Z,35.20
2023-04-10T12:47:45.839Z,35.97
2023-04-10T12:50:15.906Z,34.85
2023-04-10T12:52:45.488Z,34.60
2023-04-10T12:55:16.816Z,34.87
2023-04-10T12:57:46.090Z,34.43
2023-04-10T13:00:15.660Z,34.47
2023-04-10T13:02:42.606Z,33.80
2023-04-10T13:05:10.438Z,34.44
2023-04-10T13:07:37.975Z,34.55
2023-04-10T13:10:08.339Z,34.92
2023-04-10T13:12:36.333Z,33.74
2023-04-10T13:15:03.284Z,34.29
2023-04-10T13:17:30.234Z,34.20
2023-04-10T13:19:57.034Z,34.18
2023-04-10T13:22:23.712Z,34.40
2023-04-10T13:24:50.488Z,34.86
2023-04-10T13:27:17.140Z,34.46
2023-04-10T13:29:43.885Z,34.35
2023-04-10T13:32:10.804Z,34.53
2023-04-10T13:34:37.639Z,33.56
2023-04-10T13:37:04.481Z,33.82
2023-04-10T13:39:31.636Z,33.52
2023-04-10T13:41:59.338Z,35.07
2023-04-10T13:44:26.261Z,34.52
2023-04-10T13:46:53.233Z,34.46
2023-04-10T13:49:22.015Z,34.89
2023-04-10T13:51:48.914Z,34.84
2023-04-10T13:54:17.429Z,35.27
2023-04-10T13:56:47.104Z,35.07
2023-04-10T13:59:14.212Z,34.29
2023-04-10T14:01:41.045Z,34.84
2023-04-10T14:04:08.480Z,35.06
2023-04-10T14:06:35.411Z,35.14
2023-04-10T14:09:02.207Z,35.16
2023-04-10T14:11:28.973Z,34.71
2023-04-10T14:13:55.733Z,35.49
2023-04-10T14:16:22.438Z,35.03
2023-04-10T14:18:49.177Z,35.11
2023-04-10T14:21:15.807Z,34.72
2023-04-10T14:23:43.030Z,35.13
2023-04-10T14:26:09.836Z,35.53
2023-04-10T14:28:36.755Z,35.36
2023-04-10T14:31:04.752Z,35.42
2023-04-10T14:33:31.517Z,34.84
2023-04-10T14:35:58.225Z,34.55
2023-04-10T14:38:24.966Z,35.08
2023-04-10T14:40:51.982Z,35.59
2023-04-10T14:43:19.598Z,36.04
2023-04-10T14:45:46.337Z,35.82
2023-04-10T14:48:13.454Z,36.58
2023-04-10T14:50:40.531Z,36.22
2023-04-10T14:53:09.701Z,36.80
2023-04-10T14:55:37.389Z,37.26
2023-04-10T14:58:04.677Z,36.99
2023-04-10T15:00:32.310Z,36.55
2023-04-10T15:02:59.188Z,36.36
2023-04-10T15:05:26.440Z,36.28
2023-04-10T15:07:53.564Z,36.82
2023-04-10T15:10:20.622Z,36.95
2023-04-10T15:12:47.358Z,36.24
2023-04-10T15:15:13.988Z,36.56
2023-04-10T15:17:41.289Z,36.66
2023-04-10T15:20:08.372Z,37.34
2023-04-10T15:22:35.876Z,37.51
2023-04-10T15:25:02.985Z,36.87
2023-04-10T15:27:29.742Z,37.29
2023-04-10T15:29:56.987Z,37.60
2023-04-10T15:32:23.695Z,37.75
2023-04-10T15:34:50.439Z,37.33
2023-04-10T15:37:17.130Z,37.91
2023-04-10T15:39:43.845Z,37.82
2023-04-10T15:42:10.640Z,38.41
2023-04-10T15:44:37.367Z,37.33
2023-04-10T15:47:04.089Z,37.56
2023-04-10T15:49:37.900Z,37.51
2023-04-10T15:52:06.589Z,37.45
2023-04-10T15:54:34.259Z,36.89
2023-04-10T15:57:02.244Z,36.96
2023-04-10T15:59:29.422Z,36.93
2023-04-10T16:01:56.291Z,37.08
2023-04-10T16:04:23.307Z,37.26
2023-04-10T16:06:50.512Z,37.50
2023-04-10T16:11:47.795Z,37.31
2023-04-10T16:14:14.479Z,38.05
2023-04-10T16:16:41.270Z,38.58
2023-04-10T16:19:07.931Z,39.23
2023-04-10T16:21:34.571Z,39.02
2023-04-10T16:24:01.432Z,39.69
2023-04-10T16:26:28.157Z,39.16
2023-04-10T16:28:54.922Z,39.76
2023-04-10T16:31:21.943Z,40.14
2023-04-10T16:33:48.628Z,40.11
2023-04-10T16:36:15.509Z,39.06
2023-04-10T16:38:42.195Z,39.51
2023-04-10T16:41:10.059Z,39.61
2023-04-10T16:43:36.701Z,39.91
2023-04-10T16:46:03.542Z,39.80
2023-04-10T16:48:30.257Z,40.08
2023-04-10T16:51:04.754Z,38.93
2023-04-10T16:53:32.803Z,39.65
2023-04-10T16:56:01.531Z,39.40
2023-04-10T16:58:30.417Z,39.19
2023-04-10T17:00:57.185Z,39.36
2023-04-10T17:03:23.974Z,39.42
2023-04-10T17:05:51.305Z,39.41
2023-04-10T17:08:17.954Z,39.34
2023-04-10T17:10:44.578Z,39.95
2023-04-10T17:13:11.234Z,40.26
2023-04-10T17:15:37.845Z,40.22
2023-04-10T17:18:04.595Z,40.88
2023-04-10T17:20:35.719Z,41.00
2023-04-10T17:23:02.416Z,41.13
2023-04-10T17:25:29.165Z,41.92
2023-04-10T17:27:57.120Z,41.75
2023-04-10T17:30:23.845Z,41.64
2023-04-10T17:32:50.523Z,41.54
2023-04-10T17:35:17.392Z,41.91
2023-04-10T17:37:44.008Z,42.39
2023-04-10T17:40:11.205Z,42.47
2023-04-10T17:42:37.813Z,42.77
2023-04-10T17:45:04.948Z,42.97
2023-04-10T17:47:31.819Z,43.52
2023-04-10T17:49:58.543Z,43.23
2023-04-10T17:52:25.295Z,42.98
2023-04-10T17:54:51.965Z,42.96
2023-04-10T17:57:18.621Z,42.81
2023-04-10T17:59:45.326Z,42.67
2023-04-10T18:02:12.033Z,42.73
2023-04-10T18:04:38.758Z,42.69
2023-04-10T18:07:05.360Z,42.79
2023-04-10T18:09:32.039Z,43.15
2023-04-10T18:11:58.682Z,42.59
2023-04-10T18:14:25.369Z,42.82
2023-04-10T18:16:52.053Z,43.06
2023-04-10T18:19:18.713Z,43.33
2023-04-10T18:21:45.950Z,42.96
2023-04-10T18:24:13.970Z,43.13
2023-04-10T18:26:40.679Z,42.94
2023-04-10T18:29:07.724Z,43.11
2023-04-10T18:31:34.383Z,43.30
2023-04-10T18:34:07.553Z,43.88
2023-04-10T18:36:35.576Z,43.95
2023-04-10T18:39:02.257Z,43.91
2023-04-10T18:41:28.933Z,44.08
2023-04-10T18:44:04.012Z,43.90
2023-04-10T18:46:32.567Z,43.57
2023-04-10T18:49:01.131Z,43.83
2023-04-10T18:51:28.481Z,43.94
2023-04-10T18:53:55.802Z,43.97
2023-04-10T18:56:22.706Z,44.24
2023-04-10T18:58:50.310Z,44.56
2023-04-10T19:01:20.755Z,44.62
2023-04-10T19:03:49.393Z,44.55
2023-04-10T19:06:18.552Z,44.74
2023-04-10T19:08:45.278Z,44.69
2023-04-10T19:11:12.228Z,44.82
2023-04-10T19:13:38.986Z,44.78
2023-04-10T19:16:05.995Z,44.63
2023-04-10T19:18:32.713Z,44.25
2023-04-10T19:20:59.526Z,44.56
2023-04-10T19:23:26.608Z,44.66
2023-04-10T19:25:54.642Z,44.25
2023-04-10T19:28:23.234Z,44.35
2023-04-10T19:30:50.224Z,44.29
2023-04-10T19:33:17.328Z,44.12
2023-04-10T19:35:44.329Z,44.32
2023-04-10T19:38:11.187Z,44.50
2023-04-10T19:40:37.936Z,44.31
2023-04-10T19:43:04.573Z,44.49
2023-04-10T19:45:33.051Z,44.70
2023-04-10T19:48:00.257Z,44.75
2023-04-10T19:50:29.594Z,44.79
2023-04-10T19:52:56.735Z,45.05
2023-04-10T19:55:23.533Z,45.17
2023-04-10T19:57:50.710Z,45.23
2023-04-10T20:00:17.542Z,45.26
2023-04-10T20:02:44.378Z,45.53
2023-04-10T20:05:12.369Z,45.70
2023-04-10T20:07:39.037Z,45.85
2023-04-10T20:10:06.224Z,45.96
2023-04-10T20:12:33.245Z,45.89
2023-04-10T20:15:04.295Z,45.61
2023-04-10T20:17:31.352Z,45.75
2023-04-10T20:19:58.028Z,45.74
2023-04-10T20:22:25.496Z,45.49
2023-04-10T20:24:52.199Z,45.30
2023-04-10T20:27:18.916Z,45.29
2023-04-10T20:29:45.704Z,45.50
2023-04-10T20:32:12.328Z,45.49
2023-04-10T20:34:39.021Z,45.59
2023-04-10T20:37:05.858Z,45.88
2023-04-10T20:39:33.467Z,45.81
2023-04-10T20:42:00.180Z,46.00
2023-04-10T20:44:26.781Z,45.75
2023-04-10T20:46:53.540Z,46.10
2023-04-10T20:49:20.482Z,46.43
2023-04-10T20:51:47.250Z,47.34
2023-04-10T20:54:15.100Z,49.06
2023-04-10T20:56:43.859Z,49.54
2023-04-10T20:59:11.540Z,49.49
2023-04-10T21:01:38.564Z,47.79
2023-04-10T21:04:06.270Z,47.96
2023-04-10T21:06:33.798Z,47.90
2023-04-10T21:09:00.807Z,48.26
2023-04-10T21:11:27.716Z,48.41
2023-04-10T21:13:54.625Z,48.29
2023-04-10T21:16:21.509Z,48.21
2023-04-10T21:18:48.391Z,48.04
2023-04-10T21:21:15.559Z,48.04
2023-04-10T21:23:42.322Z,47.92
2023-04-10T21:26:08.941Z,47.85
2023-04-10T21:28:35.796Z,48.01
2023-04-10T21:31:02.532Z,48.29
2023-04-10T21:33:29.194Z,48.42
2023-04-10T21:35:56.065Z,48.50
2023-04-10T21:38:24.004Z,48.60
2023-04-10T21:40:54.374Z,48.85
2023-04-10T21:43:21.813Z,48.65
2023-04-10T21:45:48.552Z,48.96
2023-04-10T21:48:15.378Z,49.36
2023-04-10T21:50:42.211Z,49.64
2023-04-10T21:53:08.979Z,49.55
2023-04-10T21:55:35.761Z,50.05
2023-04-10T21:58:02.560Z,50.39
2023-04-10T22:00:29.580Z,50.32
2023-04-10T22:02:56.339Z,50.79
2023-04-10T22:05:24.663Z,51.24
2023-04-10T22:07:52.155Z,51.09
2023-04-10T22:10:19.423Z,51.51
2023-04-10T22:12:48.357Z,51.72
2023-04-10T22:15:16.201Z,51.87
2023-04-10T22:17:43.440Z,52.52
2023-04-10T22:20:10.809Z,52.48
2023-04-10T22:22:37.745Z,52.79
2023-04-10T22:25:05.187Z,52.94
2023-04-10T22:27:33.041Z,53.29
2023-04-10T22:30:03.722Z,53.52
2023-04-10T22:32:31.928Z,53.94
2023-04-10T22:34:59.975Z,54.13
2023-04-10T22:37:27.587Z,54.72
2023-04-10T22:39:56.205Z,54.89
2023-04-10T22:42:23.911Z,55.07
2023-04-10T22:44:50.926Z,55.22
2023-04-10T22:47:17.920Z,55.77
2023-04-10T22:49:45.307Z,55.81
2023-04-10T22:52:12.869Z,55.96
2023-04-10T22:54:39.508Z,56.18
2023-04-10T22:57:06.254Z,56.39
2023-04-10T22:59:34.981Z,56.29
2023-04-10T23:02:02.179Z,56.87
2023-04-10T23:04:29.008Z,56.75
2023-04-10T23:06:55.820Z,57.35
2023-04-10T23:09:22.532Z,57.57
2023-04-10T23:11:49.484Z,57.57
2023-04-10T23:14:16.218Z,57.28
2023-04-10T23:16:45.815Z,56.68
2023-04-10T23:19:12.586Z,55.87
2023-04-10T23:21:39.301Z,55.61
2023-04-10T23:24:06.273Z,55.29
2023-04-10T23:26:33.765Z,55.49
2023-04-10T23:29:01.315Z,55.62
2023-04-10T23:31:28.053Z,55.55
2023-04-10T23:33:55.027Z,55.37
2023-04-10T23:36:22.006Z,55.56
2023-04-10T23:38:48.613Z,55.30
2023-04-10T23:41:15.281Z,55.77
2023-04-10T23:43:41.930Z,56.11
2023-04-10T23:46:08.580Z,56.03
2023-04-10T23:48:35.342Z,56.36
2023-04-10T23:51:03.563Z,56.58
2023-04-10T23:53:30.266Z,56.96
2023-04-10T23:55:56.889Z,57.20
2023-04-10T23:58:23.572Z,57.52
